Time;durP1;ratioP1;P1;durP2;ratioP2;P2;SDS_P1;SDS_P2;PMS_P1;PMS_P2;Temp;Humidity;BMP_temperature;BMP_pressure;BME280_temperature;BME280_humidity;BME280_pressure;Samples;Min_cycle;Max_cycle;Signal;HPM_P1;HPM_P2
2023/04/26 00:02:22;;;;;;;8.75;2.63;;;;;;;-146.27;94.68;84347.25;5086695;28;20058;-65
2023/04/26 00:04:54;;;;;;;6.38;2.25;;;;;;;-146.27;96.92;84375.41;5092165;28;20416;-65
2023/04/26 00:07:21;;;;;;;8.18;2.15;;;;;;;-146.27;95.43;84387.47;5081747;28;20031;-67
2023/04/26 00:09:47;;;;;;;8.10;1.98;;;;;;;-146.27;94.72;84393.50;5086800;28;20039;-65
2023/04/26 00:12:12;;;;;;;4.45;1.80;;;;;;;-146.27;95.23;84377.41;5090835;28;20069;-66
2023/04/26 00:14:38;;;;;;;6.20;2.08;;;;;;;-146.27;96.48;84391.47;5089619;28;20051;-65
2023/04/26 00:17:03;;;;;;;5.85;2.08;;;;;;;-146.27;97.32;84425.66;5086786;28;20035;-65
2023/04/26 00:19:31;;;;;;;8.05;2.33;;;;;;;-146.27;98.17;84401.53;5080218;28;20112;-65
2023/04/26 00:21:56;;;;;;;5.82;2.15;;;;;;;-146.27;97.94;84403.53;5077305;28;20027;-66
2023/04/26 00:24:21;;;;;;;9.77;2.70;;;;;;;-146.27;96.81;84417.59;5089044;28;20024;-66
2023/04/26 00:26:47;;;;;;;8.07;2.22;;;;;;;-146.27;97.95;84417.59;5084643;28;20039;-66
2023/04/26 00:29:12;;;;;;;4.82;2.22;;;;;;;-146.27;100.00;84403.53;5081012;28;20058;-67
2023/04/26 00:31:37;;;;;;;8.77;2.30;;;;;;;-146.27;98.94;84465.84;5080818;28;20024;-67
2023/04/26 00:34:03;;;;;;;7.07;1.95;;;;;;;-146.27;99.49;84441.72;5080751;28;20024;-66
2023/04/26 00:36:28;;;;;;;12.88;2.80;;;;;;;-146.27;99.85;84493.97;5082868;28;20023;-66
2023/04/26 00:38:53;;;;;;;9.00;2.40;;;;;;;-146.27;100.00;84459.81;5088648;28;20425;-66
2023/04/26 00:41:19;;;;;;;7.40;2.30;;;;;;;-146.27;100.00;84437.72;5089349;28;20024;-66
2023/04/26 00:43:44;;;;;;;9.77;2.33;;;;;;;-146.27;100.00;84518.09;5095802;28;20082;-67
2023/04/26 00:46:10;;;;;;;8.63;2.40;;;;;;;-146.27;100.00;84479.91;5092334;28;20027;-66
2023/04/26 00:48:36;;;;;;;6.72;2.00;;;;;;;-146.27;100.00;84508.06;5096042;28;20024;-65
2023/04/26 00:51:01;;;;;;;7.47;1.73;;;;;;;-146.27;99.46;84477.91;5094072;28;20611;-66
2023/04/26 00:53:29;;;;;;;10.63;2.08;;;;;;;-146.27;100.00;84485.94;5089743;28;20016;-66
2023/04/26 00:55:55;;;;;;;6.82;2.50;;;;;;;-146.27;100.00;84479.91;5090959;28;20077;-66
2023/04/26 00:58:20;;;;;;;12.40;2.17;;;;;;;-146.27;100.00;84518.09;5088697;28;20423;-66
2023/04/26 01:00:45;;;;;;;9.73;2.25;;;;;;;-146.27;100.00;84489.97;5091493;28;20028;-66
2023/04/26 01:03:11;;;;;;;16.42;2.80;;;;;;;-146.27;100.00;84520.09;5089713;28;20051;-65
2023/04/26 01:05:37;;;;;;;11.90;2.42;;;;;;;-146.27;100.00;84530.16;5088452;28;20103;-66
2023/04/26 01:08:04;;;;;;;10.05;2.78;;;;;;;-146.27;100.00;84502.03;5094020;28;20131;-65
2023/04/26 01:10:31;;;;;;;8.65;2.60;;;;;;;-146.27;100.00;84542.22;5090318;28;20031;-65
2023/04/26 01:12:57;;;;;;;5.68;1.73;;;;;;;-146.27;100.00;84534.19;5092483;28;20428;-65
2023/04/26 01:15:23;;;;;;;8.30;2.55;;;;;;;-146.27;100.00;84548.25;5084300;28;20107;-66
2023/04/26 01:17:51;;;;;;;7.80;3.00;;;;;;;-146.27;100.00;84524.13;5093582;28;20093;-66
2023/04/26 01:20:16;;;;;;;13.93;2.63;;;;;;;-146.27;100.00;84556.28;5080647;28;20101;-66
2023/04/26 01:22:41;;;;;;;6.22;2.47;;;;;;;-146.27;100.00;84564.31;5083778;28;20040;-66
2023/04/26 01:25:10;;;;;;;12.45;2.88;;;;;;;-146.27;100.00;84554.28;5093640;28;20097;-67
2023/04/26 01:27:36;;;;;;;7.97;2.40;;;;;;;-146.27;100.00;84558.31;5091925;28;20181;-65
2023/04/26 01:30:02;;;;;;;10.70;2.58;;;;;;;-146.27;100.00;84558.31;5083958;28;20106;-66
2023/04/26 01:32:27;;;;;;;8.85;2.70;;;;;;;-146.27;100.00;84524.13;5084410;28;20020;-66
2023/04/26 01:34:53;;;;;;;8.85;2.95;;;;;;;-146.27;100.00;84538.19;5090990;28;20039;-65
2023/04/26 01:37:18;;;;;;;6.35;2.70;;;;;;;-146.27;100.00;84532.16;5090022;28;20023;-66
2023/04/26 01:39:43;;;;;;;4.88;2.92;;;;;;;-146.27;100.00;84508.06;5093294;28;20042;-66
2023/04/26 01:42:09;;;;;;;11.20;2.97;;;;;;;-146.27;100.00;84574.38;5094417;28;20099;-66
2023/04/26 01:44:34;;;;;;;12.43;3.63;;;;;;;-146.27;100.00;84536.19;5090979;28;20020;-65
2023/04/26 01:46:59;;;;;;;4.97;2.97;;;;;;;-146.27;100.00;84542.22;5076458;28;20464;-66
2023/04/26 01:49:25;;;;;;;7.40;3.25;;;;;;;-146.27;100.00;84558.31;5086829;28;20392;-66
2023/04/26 01:51:50;;;;;;;10.10;3.03;;;;;;;-146.27;100.00;84516.09;5090805;28;20063;-67
2023/04/26 01:54:16;;;;;;;7.57;3.50;;;;;;;-146.27;100.00;84526.13;5091037;28;20411;-66
2023/04/26 01:56:41;;;;;;;6.97;3.20;;;;;;;-146.27;100.00;84582.41;5092058;28;20050;-65
2023/04/26 01:59:06;;;;;;;6.38;3.40;;;;;;;-146.27;100.00;84584.44;5094505;28;21579;-66
2023/04/26 02:01:32;;;;;;;7.05;3.45;;;;;;;-146.27;100.00;84526.13;5092399;28;20032;-66
2023/04/26 02:03:57;;;;;;;6.40;2.72;;;;;;;-146.27;100.00;84562.31;5092261;28;20032;-67
2023/04/26 02:06:22;;;;;;;6.07;2.65;;;;;;;-146.27;100.00;84576.38;5093080;28;20043;-65
2023/04/26 02:08:48;;;;;;;7.53;3.35;;;;;;;-146.27;100.00;84592.47;5089280;28;20044;-65
2023/04/26 02:11:13;;;;;;;11.80;2.80;;;;;;;-146.27;100.00;84578.41;5087619;28;20023;-65
2023/04/26 02:13:39;;;;;;;6.40;3.20;;;;;;;-146.27;100.00;84562.31;5094723;28;20491;-67
2023/04/26 02:16:05;;;;;;;7.88;3.30;;;;;;;-146.27;100.00;84602.50;5093794;28;20107;-65
2023/04/26 02:18:30;;;;;;;8.35;3.53;;;;;;;-146.27;100.00;84560.31;5091636;28;20052;-65
2023/04/26 02:20:56;;;;;;;11.70;3.38;;;;;;;-146.27;100.00;84564.31;5082219;28;20443;-66
2023/04/26 02:23:23;;;;;;;8.00;3.58;;;;;;;-146.27;100.00;84566.34;5092789;28;20028;-67
2023/04/26 02:25:48;;;;;;;6.65;3.17;;;;;;;-146.27;100.00;84596.50;5088044;28;20028;-65
2023/04/26 02:28:15;;;;;;;7.95;2.95;;;;;;;-146.27;100.00;84580.41;5084765;28;20361;-66
2023/04/26 02:30:40;;;;;;;14.00;4.07;;;;;;;-146.27;100.00;84542.22;5088975;28;20032;-65
2023/04/26 02:33:07;;;;;;;18.13;7.78;;;;;;;-146.27;100.00;84552.28;5081574;28;20029;-66
2023/04/26 02:35:33;;;;;;;17.42;8.02;;;;;;;-146.27;100.00;84542.22;5091240;28;20456;-65
2023/04/26 02:37:58;;;;;;;15.18;4.18;;;;;;;-146.27;100.00;84544.22;5085343;28;20036;-66
2023/04/26 02:40:23;;;;;;;11.35;3.95;;;;;;;-146.27;100.00;84538.19;5081830;28;20028;-66
2023/04/26 02:42:49;;;;;;;9.18;4.30;;;;;;;-146.27;100.00;84554.28;5077866;28;20043;-66
2023/04/26 02:45:14;;;;;;;11.85;3.90;;;;;;;-146.27;100.00;84610.56;5085274;28;20023;-66
2023/04/26 02:47:39;;;;;;;11.95;3.55;;;;;;;-146.27;100.00;84552.28;5082449;28;20035;-66
2023/04/26 02:50:09;;;;;;;7.30;3.83;;;;;;;-146.27;100.00;84544.22;5085043;28;20032;-66
2023/04/26 02:52:35;;;;;;;10.45;4.20;;;;;;;-146.27;100.00;84586.44;5089205;28;20112;-65
2023/04/26 02:55:03;;;;;;;7.93;3.53;;;;;;;-146.27;100.00;84542.22;5081249;28;20020;-66
2023/04/26 02:57:28;;;;;;;10.45;3.83;;;;;;;-146.27;100.00;84528.16;5074426;28;20107;-66
2023/04/26 02:59:54;;;;;;;6.10;2.80;;;;;;;-146.27;100.00;84600.50;5077206;28;20107;-67
2023/04/26 03:02:20;;;;;;;7.18;3.50;;;;;;;-146.27;100.00;84574.38;5079185;28;20676;-66
2023/04/26 03:04:46;;;;;;;10.35;3.85;;;;;;;-146.27;100.00;84606.53;5092429;28;20077;-65
2023/04/26 03:07:11;;;;;;;8.30;4.28;;;;;;;-146.27;100.00;84578.41;5093637;28;20106;-66
2023/04/26 03:09:37;;;;;;;6.47;3.25;;;;;;;-146.27;100.00;84626.63;5093413;28;20048;-66
2023/04/26 03:12:06;;;;;;;8.43;3.60;;;;;;;-146.27;100.00;84614.56;5092614;28;20174;-66
2023/04/26 03:14:32;;;;;;;11.57;3.72;;;;;;;-146.27;100.00;84580.41;5093489;28;20508;-67
2023/04/26 03:16:58;;;;;;;7.57;3.20;;;;;;;-146.27;100.00;84586.44;5076458;28;20407;-66
2023/04/26 03:19:23;;;;;;;12.18;3.63;;;;;;;-146.27;100.00;84574.38;5082203;28;20039;-66
2023/04/26 03:21:49;;;;;;;11.25;3.42;;;;;;;-146.27;100.00;84588.44;5079348;28;20038;-66
2023/04/26 03:24:14;;;;;;;17.60;3.67;;;;;;;-146.27;100.00;84644.72;5091120;28;20368;-66
2023/04/26 03:26:39;;;;;;;10.80;3.33;;;;;;;-146.27;100.00;84602.50;5086702;28;20115;-67
2023/04/26 03:29:06;;;;;;;7.93;3.58;;;;;;;-146.27;100.00;84584.44;5091320;28;20069;-65
2023/04/26 03:31:31;;;;;;;10.77;3.60;;;;;;;-146.27;100.00;84574.38;5090366;28;20044;-66
2023/04/26 03:33:57;;;;;;;11.45;3.17;;;;;;;-146.27;100.00;84576.38;5090580;28;20500;-66
2023/04/26 03:36:22;;;;;;;10.60;3.30;;;;;;;-146.27;100.00;84594.47;5086951;28;20032;-67
2023/04/26 03:38:47;;;;;;;9.55;3.30;;;;;;;-146.27;100.00;84582.41;5085266;28;20414;-65
2023/04/26 03:41:13;;;;;;;7.40;3.20;;;;;;;-146.27;100.00;84622.63;5087204;28;20030;-66
2023/04/26 03:43:38;;;;;;;5.82;3.63;;;;;;;-146.27;100.00;84632.66;5089431;28;20056;-66
2023/04/26 03:46:04;;;;;;;8.20;3.55;;;;;;;-146.27;100.00;84622.63;5082591;28;20457;-67
2023/04/26 03:48:29;;;;;;;13.75;4.57;;;;;;;-146.27;100.00;84626.63;5080305;28;20504;-67
2023/04/26 03:50:55;;;;;;;11.30;4.20;;;;;;;-146.27;100.00;84656.78;5086451;28;20112;-66
2023/04/26 03:53:20;;;;;;;9.20;4.45;;;;;;;-146.27;100.00;84654.78;5091085;28;20048;-65
2023/04/26 03:55:45;;;;;;;10.52;4.15;;;;;;;-146.27;100.00;84630.66;5082654;28;20055;-66
2023/04/26 03:58:11;;;;;;;10.65;4.05;;;;;;;-146.27;100.00;84634.69;5090171;28;20066;-65
2023/04/26 04:00:37;;;;;;;8.45;4.28;;;;;;;-146.27;100.00;84672.88;5088762;28;20032;-65
2023/04/26 04:03:03;;;;;;;14.38;4.03;;;;;;;-146.27;100.00;84674.88;5080483;28;20028;-66
2023/04/26 04:05:28;;;;;;;8.90;4.38;;;;;;;-146.27;100.00;84662.81;5089352;28;20435;-66
2023/04/26 04:07:55;;;;;;;9.52;4.60;;;;;;;-146.27;100.00;84680.91;5087995;28;20044;-65
2023/04/26 04:10:22;;;;;;;8.65;4.35;;;;;;;-146.27;100.00;84640.69;5087295;28;20020;-66
2023/04/26 04:12:47;;;;;;;10.82;4.13;;;;;;;-146.27;100.00;84650.75;5089230;28;20012;-67
2023/04/26 04:15:12;;;;;;;14.05;3.95;;;;;;;-146.27;100.00;84648.75;5083083;28;20605;-65
2023/04/26 04:17:38;;;;;;;7.80;4.07;;;;;;;-146.27;100.00;84630.66;5087062;28;20031;-66
2023/04/26 04:20:06;;;;;;;11.43;4.38;;;;;;;-146.27;100.00;84678.91;5088120;28;20020;-66
2023/04/26 04:22:31;;;;;;;8.50;4.75;;;;;;;-146.27;100.00;84690.94;5081080;28;20036;-66
2023/04/26 04:24:58;;;;;;;13.63;4.50;;;;;;;-146.27;100.00;84650.75;5090130;28;20353;-67
2023/04/26 04:27:24;;;;;;;9.73;4.00;;;;;;;-146.27;100.00;84638.69;5084473;28;20111;-67
2023/04/26 04:29:49;;;;;;;10.57;3.90;;;;;;;-146.27;100.00;84616.59;5088488;28;20201;-66
2023/04/26 04:32:16;;;;;;;10.45;4.40;;;;;;;-146.27;100.00;84686.94;5086827;28;20081;-66
2023/04/26 04:34:42;;;;;;;9.02;4.45;;;;;;;-146.27;100.00;84656.78;5079453;28;20043;-66
2023/04/26 04:37:07;;;;;;;12.23;4.55;;;;;;;-146.27;100.00;84612.56;5086930;28;20455;-66
2023/04/26 04:39:33;;;;;;;11.20;5.35;;;;;;;-146.27;100.00;84630.66;5092601;28;20065;-65
2023/04/26 04:41:59;;;;;;;7.88;4.43;;;;;;;-146.27;100.00;84674.88;5089217;28;20022;-66
2023/04/26 04:44:25;;;;;;;13.20;4.75;;;;;;;-146.27;100.00;84656.78;5081725;28;20036;-66
2023/04/26 04:46:51;;;;;;;12.20;4.90;;;;;;;-146.27;100.00;84739.19;5078613;28;20028;-66
2023/04/26 04:49:17;;;;;;;11.40;4.88;;;;;;;-146.27;100.00;84699.00;5083198;28;20035;-66
2023/04/26 04:51:43;;;;;;;10.88;4.75;;;;;;;-146.27;100.00;84680.91;5088706;28;20500;-69
2023/04/26 04:54:14;;;;;;;9.38;4.20;;;;;;;-146.27;100.00;84672.88;5088574;28;20035;-66
2023/04/26 04:56:40;;;;;;;11.18;5.05;;;;;;;-146.27;100.00;84658.78;5085149;28;20039;-66
2023/04/26 04:59:06;;;;;;;14.82;7.18;;;;;;;-146.27;100.00;84666.84;5081871;28;20476;-65
2023/04/26 05:01:32;;;;;;;13.20;5.93;;;;;;;-146.27;100.00;84658.78;5084504;28;20027;-66
2023/04/26 05:03:58;;;;;;;14.73;6.70;;;;;;;-146.27;100.00;84658.78;5090197;28;20024;-66
2023/04/26 05:06:24;;;;;;;12.95;5.60;;;;;;;-146.27;100.00;84638.69;5089099;28;20073;-67
2023/04/26 05:08:50;;;;;;;10.75;5.22;;;;;;;-146.27;100.00;84690.94;5087236;28;20044;-66
2023/04/26 05:11:15;;;;;;;15.63;6.07;;;;;;;-146.27;100.00;84670.84;5090325;28;20448;-66
2023/04/26 05:13:40;;;;;;;13.95;6.13;;;;;;;-146.27;100.00;84626.63;5085390;28;20029;-67
2023/04/26 05:16:06;;;;;;;13.27;5.57;;;;;;;-146.27;100.00;84628.66;5079104;28;20028;-65
2023/04/26 05:18:31;;;;;;;9.00;4.97;;;;;;;-146.27;100.00;84576.38;5082597;28;20026;-66
2023/04/26 05:20:57;;;;;;;13.45;5.03;;;;;;;-146.27;100.00;84604.53;5088970;28;20020;-66
2023/04/26 05:23:22;;;;;;;17.20;5.80;;;;;;;-146.27;100.00;84602.50;5085879;28;20024;-65
2023/04/26 05:25:48;;;;;;;11.48;4.97;;;;;;;-146.27;100.00;84610.56;5088850;28;20028;-66
2023/04/26 05:28:13;;;;;;;14.98;5.95;;;;;;;-146.27;100.00;84602.50;5076553;28;20029;-66
2023/04/26 05:30:39;;;;;;;18.13;6.38;;;;;;;-146.27;100.00;84594.47;5091163;28;20525;-66
2023/04/26 05:33:05;;;;;;;16.10;6.40;;;;;;;-146.27;100.00;84546.25;5091485;28;20028;-66
2023/04/26 05:35:31;;;;;;;13.90;6.50;;;;;;;-146.27;100.00;84562.31;5091288;28;20047;-66
2023/04/26 05:37:56;;;;;;;12.05;6.43;;;;;;;-146.27;100.00;84586.44;5081346;28;20503;-67
2023/04/26 05:40:21;;;;;;;15.32;6.65;;;;;;;-146.27;100.00;84526.13;5090025;28;20028;-67
2023/04/26 05:42:49;;;;;;;14.60;5.65;;;;;;;-146.27;100.00;84506.03;5090835;28;20103;-68
2023/04/26 05:45:14;;;;;;;13.65;6.03;;;;;;;-146.27;100.00;84477.91;5091798;28;20028;-67
2023/04/26 05:47:39;;;;;;;12.20;6.10;;;;;;;-146.27;100.00;84514.09;5093341;28;20080;-67
2023/04/26 05:50:05;;;;;;;12.75;6.28;;;;;;;-146.27;100.00;84457.81;5093752;28;20035;-67
2023/04/26 05:52:31;;;;;;;13.15;5.88;;;;;;;-146.27;100.00;84469.88;5094496;28;20028;-67
2023/04/26 05:54:56;;;;;;;12.60;5.72;;;;;;;-146.27;100.00;84427.66;5088269;28;20034;-67
2023/04/26 05:57:22;;;;;;;20.08;6.07;;;;;;;-146.27;100.00;84407.56;5094383;28;20022;-67
2023/04/26 05:59:47;;;;;;;11.65;6.22;;;;;;;-146.27;100.00;84433.69;5095034;28;20072;-67
2023/04/26 06:02:12;;;;;;;10.90;5.10;;;;;;;-146.27;100.00;84397.50;5088622;28;20111;-67
2023/04/26 06:04:39;;;;;;;9.55;5.13;;;;;;;-146.27;100.00;84397.50;5089308;28;20139;-67
2023/04/26 06:07:06;;;;;;;16.98;5.68;;;;;;;-146.27;100.00;84383.44;5091859;28;20020;-67
2023/04/26 06:09:31;;;;;;;14.43;5.95;;;;;;;-146.27;100.00;84357.31;5091101;28;20391;-67
2023/04/26 06:11:58;;;;;;;10.75;5.32;;;;;;;-146.27;100.00;84367.38;5093203;28;20024;-66
2023/04/26 06:14:23;;;;;;;17.25;5.72;;;;;;;-146.27;100.00;84341.22;5093272;28;20028;-67
2023/04/26 06:16:48;;;;;;;11.18;5.07;;;;;;;-146.27;100.00;84357.31;5090451;28;20089;-66
2023/04/26 06:19:14;;;;;;;11.65;4.68;;;;;;;-146.27;100.00;84353.28;5092368;28;20114;-68
2023/04/26 06:21:40;;;;;;;19.98;5.80;;;;;;;-146.27;100.00;84331.19;5089511;28;20028;-66
2023/04/26 06:24:05;;;;;;;12.02;5.45;;;;;;;-146.27;100.00;84373.41;5091850;28;20031;-66
2023/04/26 06:26:31;;;;;;;8.02;4.68;;;;;;;-146.27;99.43;84325.16;5087295;28;20287;-66
2023/04/26 06:28:56;;;;;;;8.07;3.53;;;;;;;-146.27;98.23;84333.19;5085474;28;20400;-66
2023/04/26 06:31:22;;;;;;;11.88;4.13;;;;;;;-146.27;97.58;84307.06;5089131;28;20040;-65
2023/04/26 06:33:47;;;;;;;10.75;3.95;;;;;;;-146.27;97.43;84297.03;5093668;28;20027;-67
2023/04/26 06:36:13;;;;;;;9.77;3.85;;;;;;;-146.27;98.81;84276.94;5091447;28;20031;-67
2023/04/26 06:38:38;;;;;;;13.68;3.28;;;;;;;-146.27;93.77;84252.81;5083417;28;20024;-65
2023/04/26 06:41:04;;;;;;;8.57;3.30;;;;;;;-146.27;92.04;84299.03;5091342;28;20499;-67
2023/04/26 06:43:29;;;;;;;9.48;3.28;;;;;;;-146.27;91.24;84276.94;5085919;28;20040;-66
2023/04/26 06:45:55;;;;;;;10.82;3.17;;;;;;;-146.27;91.92;84252.81;5092096;28;20070;-67
2023/04/26 06:48:20;;;;;;;7.65;2.88;;;;;;;-146.27;89.18;84224.66;5090964;28;20116;-66
2023/04/26 06:50:45;;;;;;;5.97;2.42;;;;;;;-146.27;86.78;84204.56;5084477;28;20497;-67
2023/04/26 06:53:11;;;;;;;9.45;2.60;;;;;;;-146.27;85.62;84222.66;5086049;28;20498;-66
2023/04/26 06:55:36;;;;;;;6.35;2.35;;;;;;;-146.27;85.24;84212.63;5088263;28;20097;-66
2023/04/26 06:58:02;;;;;;;6.50;2.50;;;;;;;-146.27;85.47;84224.66;5090919;28;20081;-66
2023/04/26 07:00:28;;;;;;;7.30;1.90;;;;;;;-146.27;85.93;84222.66;5086600;28;20100;-67
2023/04/26 07:02:54;;;;;;;5.07;1.98;;;;;;;-146.27;86.46;84200.56;5084262;28;20032;-69
2023/04/26 07:05:19;;;;;;;2.95;1.77;;;;;;;-146.27;87.63;84228.69;5091197;28;20059;-66
2023/04/26 07:07:45;;;;;;;7.78;2.25;;;;;;;-146.27;86.80;84220.66;5077999;28;20460;-66
2023/04/26 07:10:10;;;;;;;3.90;1.60;;;;;;;-146.27;85.20;84220.66;5082877;28;20034;-66
2023/04/26 07:12:36;;;;;;;3.40;1.52;;;;;;;-146.27;86.26;84200.56;5088346;28;20024;-66
2023/04/26 07:15:02;;;;;;;5.57;1.50;;;;;;;-146.27;87.18;84160.38;5084910;28;20097;-66
2023/04/26 07:17:27;;;;;;;1.85;1.33;;;;;;;-146.27;86.15;84168.41;5085894;28;20028;-67
2023/04/26 07:19:52;;;;;;;3.35;1.38;;;;;;;-146.27;85.09;84190.50;5091257;28;20020;-67
2023/04/26 07:22:18;;;;;;;3.20;1.20;;;;;;;-146.27;86.63;84218.63;5083768;28;20016;-67
2023/04/26 07:24:43;;;;;;;1.98;1.27;;;;;;;-146.27;84.53;84202.56;5082935;28;20104;-68
2023/04/26 07:27:09;;;;;;;2.40;0.98;;;;;;;-146.27;80.18;84168.41;5088648;28;20077;-66
2023/04/26 07:29:35;;;;;;;1.48;0.88;;;;;;;-146.27;80.19;84196.53;5086453;28;20024;-67
2023/04/26 07:32:00;;;;;;;3.17;1.30;;;;;;;-146.27;78.29;84182.47;5087297;28;20164;-66
2023/04/26 07:34:26;;;;;;;7.72;1.30;;;;;;;-146.27;79.44;84142.28;5085151;28;20444;-67
2023/04/26 07:36:51;;;;;;;3.90;1.35;;;;;;;-146.27;78.55;84172.41;5079688;28;20081;-67
2023/04/26 07:39:16;;;;;;;6.60;1.70;;;;;;;-146.27;78.37;84148.31;5092544;28;20054;-68
2023/04/26 07:41:42;;;;;;;0.95;0.93;;;;;;;-146.27;80.15;84166.38;5082570;28;20099;-67
2023/04/26 07:44:07;;;;;;;3.25;1.00;;;;;;;-146.27;80.81;84142.28;5087475;28;20048;-68
2023/04/26 07:46:33;;;;;;;1.48;1.00;;;;;;;-146.27;83.73;84156.34;5091754;28;20099;-68
2023/04/26 07:48:59;;;;;;;4.65;1.40;;;;;;;-146.27;83.48;84132.22;5083638;28;20558;-69
2023/04/26 07:51:26;;;;;;;1.10;0.90;;;;;;;-146.27;79.05;84134.22;5092493;28;20134;-67
2023/04/26 07:53:51;;;;;;;4.45;1.20;;;;;;;-146.27;76.90;84100.06;5083217;28;20107;-69
2023/04/26 07:56:17;;;;;;;6.20;1.15;;;;;;;-146.27;76.55;84120.16;5089648;28;20119;-68
2023/04/26 07:58:42;;;;;;;4.57;1.42;;;;;;;-146.27;75.44;84065.91;5076651;28;20523;-68
2023/04/26 08:01:08;;;;;;;2.10;0.82;;;;;;;-146.27;74.90;84106.09;5086294;28;20024;-68
2023/04/26 08:03:33;;;;;;;2.25;0.82;;;;;;;-146.27;73.80;84071.94;5076528;28;20120;-67
2023/04/26 08:05:59;;;;;;;3.78;0.90;;;;;;;-146.27;75.71;84098.06;5087484;28;20103;-68
2023/04/26 08:08:28;;;;;;;6.85;1.10;;;;;;;-146.27;76.90;84086.00;5091975;28;20048;-68
2023/04/26 08:10:54;;;;;;;4.78;1.00;;;;;;;-146.27;72.92;84063.91;5092259;28;20020;-69
2023/04/26 08:13:20;;;;;;;3.20;1.00;;;;;;;-146.27;71.69;84051.84;5092123;28;20027;-68
2023/04/26 08:15:46;;;;;;;2.45;1.10;;;;;;;-146.27;69.74;84011.66;5079702;28;20032;-68
2023/04/26 08:18:12;;;;;;;4.97;1.40;;;;;;;-146.27;68.48;84029.72;5089424;28;20021;-68
2023/04/26 08:20:38;;;;;;;5.22;1.55;;;;;;;-146.27;69.41;84021.69;5092245;28;20027;-68
2023/04/26 08:23:03;;;;;;;3.03;1.35;;;;;;;-146.27;69.79;84011.66;5088457;28;20024;-68
2023/04/26 08:25:29;;;;;;;2.15;1.48;;;;;;;-146.27;73.69;83987.53;5089597;28;20035;-67
2023/04/26 08:27:54;;;;;;;3.90;1.20;;;;;;;-146.27;73.12;83983.50;5087099;28;20483;-68
2023/04/26 08:30:20;;;;;;;2.70;1.15;;;;;;;-146.27;76.96;83977.47;5090091;28;20020;-68
2023/04/26 08:32:45;;;;;;;4.35;1.20;;;;;;;-146.27;73.54;83951.34;5082288;28;20464;-69
2023/04/26 08:35:11;;;;;;;5.45;1.30;;;;;;;-146.27;71.57;83866.97;5088153;28;20388;-69
2023/04/26 08:37:37;;;;;;;4.55;0.95;;;;;;;-146.27;69.26;83899.09;5081446;28;20125;-68
2023/04/26 08:40:09;;;;;;;5.18;1.40;;;;;;;-146.27;65.23;83832.78;5088247;28;20031;-69
2023/04/26 08:42:42;;;;;;;1.70;0.90;;;;;;;-146.27;62.57;83911.16;5085819;28;20024;-69
2023/04/26 08:45:10;;;;;;;2.13;0.80;;;;;;;-146.27;59.68;83870.97;5087757;28;20020;-69
2023/04/26 08:47:42;;;;;;;4.25;1.00;;;;;;;-146.27;58.92;83879.00;5087069;28;20421;-68
2023/04/26 08:50:13;;;;;;;6.60;1.23;;;;;;;-146.27;58.99;83907.16;5077480;28;20112;-68
2023/04/26 08:52:40;;;;;;;1.67;0.88;;;;;;;-146.27;58.53;83967.44;5080532;28;20384;-68
2023/04/26 08:55:08;;;;;;;6.05;1.05;;;;;;;-146.27;58.19;83959.41;5086019;28;20021;-68
2023/04/26 08:57:34;;;;;;;5.75;0.90;;;;;;;-146.27;58.27;83957.38;5083807;28;20093;-69
2023/04/26 09:00:04;;;;;;;4.47;0.95;;;;;;;-146.27;61.31;83979.50;5088665;28;20127;-68
2023/04/26 09:02:30;;;;;;;4.78;1.50;;;;;;;-146.27;61.62;83991.56;5090419;28;20055;-69
2023/04/26 09:04:55;;;;;;;2.15;0.90;;;;;;;-146.27;61.77;84011.66;5095603;28;20056;-68
2023/04/26 09:07:32;;;;;;;3.70;0.98;;;;;;;-146.27;64.98;84001.59;5080300;28;20074;-69
2023/04/26 09:09:58;;;;;;;4.45;1.13;;;;;;;-146.27;67.82;83991.56;5093322;28;20115;-69
2023/04/26 09:12:24;;;;;;;3.63;1.23;;;;;;;-146.27;69.71;84077.97;5087496;28;20028;-68
2023/04/26 09:14:50;;;;;;;4.50;1.20;;;;;;;-146.27;69.79;84027.72;5095625;28;20084;-68
2023/04/26 09:17:35;;;;;;;4.40;1.38;;;;;;;-146.27;71.46;84112.13;5086615;28;20092;-67
2023/04/26 09:20:19;;;;;;;5.45;1.30;;;;;;;-146.27;73.75;84108.09;5091490;28;20383;-68
2023/04/26 09:22:45;;;;;;;2.85;1.25;;;;;;;-146.27;73.59;84063.91;5085390;28;20028;-68
2023/04/26 09:25:12;;;;;;;9.07;1.48;;;;;;;-146.27;75.02;84081.97;5080420;28;20380;-68
2023/04/26 09:27:42;;;;;;;4.78;1.05;;;;;;;-146.27;74.00;84063.91;5077474;28;20033;-69
2023/04/26 09:30:08;;;;;;;8.68;1.45;;;;;;;-146.27;72.79;84015.66;5084666;28;20031;-69
2023/04/26 09:32:45;;;;;;;3.83;1.25;;;;;;;-146.27;67.78;84049.84;5090266;28;20436;-69
2023/04/26 09:35:35;;;;;;;8.15;1.55;;;;;;;-146.27;69.10;84047.81;5090178;28;20024;-66
2023/04/26 09:38:05;;;;;;;1.67;1.13;;;;;;;-146.27;65.91;84049.84;5076344;28;20123;-68
2023/04/26 09:40:42;;;;;;;1.40;1.10;;;;;;;-146.27;65.84;84043.81;5086476;28;20035;-68
2023/04/26 09:43:15;;;;;;;3.08;1.02;;;;;;;-146.27;66.97;84011.66;5092303;28;20491;-67
2023/04/26 09:45:55;;;;;;;2.47;1.10;;;;;;;-146.27;66.29;83945.31;5091786;28;20050;-68
2023/04/26 09:48:25;;;;;;;2.90;1.30;;;;;;;-146.27;64.76;83971.47;5093034;28;20465;-68
2023/04/26 09:50:55;;;;;;;4.07;1.63;;;;;;;-146.27;70.48;83931.25;5088300;28;20375;-69
2023/04/26 09:53:27;;;;;;;2.67;1.40;;;;;;;-146.27;64.17;83941.31;5086426;28;20032;-68
2023/04/26 09:55:53;;;;;;;7.28;1.30;;;;;;;-146.27;65.34;83911.16;5081518;28;20889;-69
2023/04/26 09:58:19;;;;;;;4.60;1.00;;;;;;;-146.27;63.13;83887.06;5085764;28;20031;-68
2023/04/26 10:00:46;;;;;;;5.03;1.42;;;;;;;-146.27;64.46;83883.03;5087193;28;20471;-69
2023/04/26 10:03:12;;;;;;;1.35;1.20;;;;;;;-146.27;62.43;83828.78;5088190;28;20166;-67
2023/04/26 10:05:38;;;;;;;4.07;1.38;;;;;;;-146.27;58.41;83810.69;5089493;28;20019;-68
2023/04/26 10:08:05;;;;;;;2.00;1.13;;;;;;;-146.27;67.37;83772.50;5088756;28;20397;-68
2023/04/26 10:10:31;;;;;;;5.22;1.27;;;;;;;-146.27;62.47;83698.16;5082206;28;20025;-67
2023/04/26 10:12:56;;;;;;;2.70;1.08;;;;;;;-146.27;58.97;83726.28;5079658;28;20099;-69
2023/04/26 10:15:22;;;;;;;4.95;0.75;;;;;;;-146.27;53.61;83738.34;5092384;28;20165;-69
2023/04/26 10:17:47;;;;;;;2.22;1.30;;;;;;;-146.27;51.94;83682.09;5089914;28;20031;-70
2023/04/26 10:20:16;;;;;;;5.95;1.67;;;;;;;-146.27;51.34;83659.97;5085301;28;20027;-68
2023/04/26 10:22:53;;;;;;;2.25;1.10;;;;;;;-146.27;49.13;83589.66;5085452;28;20042;-69
2023/04/26 10:25:19;;;;;;;1.90;1.08;;;;;;;-146.27;47.91;83609.75;5083651;28;20028;-68
2023/04/26 10:27:45;;;;;;;2.40;0.95;;;;;;;-146.27;55.72;83561.53;5086482;28;20031;-67
2023/04/26 10:30:21;;;;;;;2.38;1.13;;;;;;;-146.27;49.33;83477.13;5077597;28;20177;-69
2023/04/26 10:32:56;;;;;;;2.35;0.95;;;;;;;-146.27;43.23;83485.16;5075937;28;20054;-69
2023/04/26 10:35:29;;;;;;;6.65;1.10;;;;;;;-146.27;44.12;83457.03;5075231;28;20035;-69
2023/04/26 10:38:00;;;;;;;5.40;1.05;;;;;;;-146.27;45.99;83459.03;5082822;28;20029;-69
2023/04/26 10:40:27;;;;;;;4.07;1.30;;;;;;;-146.27;46.11;83352.53;5088807;28;20028;-68
2023/04/26 10:43:14;;;;;;;2.47;0.95;;;;;;;-146.27;44.82;83290.25;5082667;28;20024;-68
2023/04/26 10:45:41;;;;;;;2.95;0.98;;;;;;;-146.27;46.18;83312.34;5083516;28;20549;-67
2023/04/26 10:48:17;;;;;;;3.70;0.82;;;;;;;-146.27;42.79;83298.28;5082234;28;20027;-69
2023/04/26 10:50:58;;;;;;;6.88;1.50;;;;;;;-146.27;41.20;83312.34;5081055;28;20085;-69
2023/04/26 10:53:23;;;;;;;4.95;1.15;;;;;;;-146.27;41.49;83366.59;5080441;28;20027;-69
2023/04/26 10:55:49;;;;;;;1.92;0.93;;;;;;;-146.27;41.44;83384.69;5083740;28;20028;-68
2023/04/26 10:58:31;;;;;;;3.22;0.98;;;;;;;-146.27;42.98;83428.91;5088391;28;20074;-67
2023/04/26 11:01:09;;;;;;;4.85;1.00;;;;;;;-146.27;40.28;83416.84;5085236;28;20031;-69
2023/04/26 11:03:35;;;;;;;3.03;0.80;;;;;;;-146.27;41.59;83473.09;5078163;28;20017;-69
2023/04/26 11:06:05;;;;;;;3.38;0.90;;;;;;;-146.27;42.72;83499.22;5083139;28;20302;-69
2023/04/26 11:08:31;;;;;;;3.38;0.88;;;;;;;-146.27;42.78;83513.28;5089866;28;20060;-68